sensor_id;sensor_type;location;lat;lon;timestamp;P1;durP1;ratioP1;P2;durP2;ratioP2
42414;SDS011;28058;46.344;17.786;2023-03-01T00:01:02;24.95;;;15.05;;
42414;SDS011;28058;46.344;17.786;2023-03-01T00:03:31;26.65;;;16.65;;
42414;SDS011;28058;46.344;17.786;2023-03-01T00:05:59;24.90;;;15.65;;
42414;SDS011;28058;46.344;17.786;2023-03-01T00:08:26;25.20;;;15.60;;
42414;SDS011;28058;46.344;17.786;2023-03-01T00:11:04;27.60;;;16.20;;
42414;SDS011;28058;46.344;17.786;2023-03-01T00:13:43;29.02;;;15.68;;
42414;SDS011;28058;46.344;17.786;2023-03-01T00:16:12;29.42;;;17.60;;
42414;SDS011;28058;46.344;17.786;2023-03-01T00:18:42;25.65;;;16.52;;
42414;SDS011;28058;46.344;17.786;2023-03-01T00:21:12;24.77;;;15.20;;
42414;SDS011;28058;46.344;17.786;2023-03-01T00:23:42;26.55;;;15.63;;
42414;SDS011;28058;46.344;17.786;2023-03-01T00:26:10;27.40;;;16.20;;
42414;SDS011;28058;46.344;17.786;2023-03-01T00:28:40;28.75;;;15.82;;
42414;SDS011;28058;46.344;17.786;2023-03-01T00:31:09;24.17;;;15.55;;
42414;SDS011;28058;46.344;17.786;2023-03-01T00:33:56;26.95;;;16.30;;
42414;SDS011;28058;46.344;17.786;2023-03-01T00:36:25;27.25;;;15.70;;
42414;SDS011;28058;46.344;17.786;2023-03-01T00:38:55;31.80;;;16.17;;
42414;SDS011;28058;46.344;17.786;2023-03-01T00:41:22;27.13;;;16.15;;
42414;SDS011;28058;46.344;17.786;2023-03-01T00:43:49;27.85;;;15.93;;
42414;SDS011;28058;46.344;17.786;2023-03-01T00:46:17;28.70;;;15.98;;
42414;SDS011;28058;46.344;17.786;2023-03-01T00:48:48;30.02;;;16.55;;
42414;SDS011;28058;46.344;17.786;2023-03-01T00:51:20;29.98;;;15.77;;
42414;SDS011;28058;46.344;17.786;2023-03-01T00:53:52;31.10;;;16.67;;
42414;SDS011;28058;46.344;17.786;2023-03-01T00:56:25;30.52;;;16.42;;
42414;SDS011;28058;46.344;17.786;2023-03-01T00:58:52;28.48;;;15.40;;
42414;SDS011;28058;46.344;17.786;2023-03-01T01:01:21;30.58;;;16.17;;
42414;SDS011;28058;46.344;17.786;2023-03-01T01:03:51;31.85;;;16.23;;
42414;SDS011;28058;46.344;17.786;2023-03-01T01:06:21;30.65;;;17.75;;
42414;SDS011;28058;46.344;17.786;2023-03-01T01:08:49;34.72;;;17.92;;
42414;SDS011;28058;46.344;17.786;2023-03-01T01:11:17;31.70;;;16.92;;
42414;SDS011;28058;46.344;17.786;2023-03-01T01:13:45;32.75;;;17.40;;
42414;SDS011;28058;46.344;17.786;2023-03-01T01:16:13;32.80;;;17.65;;
42414;SDS011;28058;46.344;17.786;2023-03-01T01:18:41;33.28;;;19.05;;
42414;SDS011;28058;46.344;17.786;2023-03-01T01:21:09;33.40;;;17.50;;
42414;SDS011;28058;46.344;17.786;2023-03-01T01:23:39;30.20;;;17.50;;
42414;SDS011;28058;46.344;17.786;2023-03-01T01:26:07;29.27;;;17.58;;
42414;SDS011;28058;46.344;17.786;2023-03-01T01:28:39;36.97;;;19.40;;
42414;SDS011;28058;46.344;17.786;2023-03-01T01:31:06;28.90;;;16.77;;
42414;SDS011;28058;46.344;17.786;2023-03-01T01:33:34;35.80;;;18.48;;
42414;SDS011;28058;46.344;17.786;2023-03-01T01:36:01;35.00;;;17.90;;
42414;SDS011;28058;46.344;17.786;2023-03-01T01:38:28;31.73;;;18.40;;
42414;SDS011;28058;46.344;17.786;2023-03-01T01:40:55;38.08;;;20.65;;
42414;SDS011;28058;46.344;17.786;2023-03-01T01:43:29;36.63;;;18.38;;
42414;SDS011;28058;46.344;17.786;2023-03-01T01:48:40;38.85;;;21.00;;
42414;SDS011;28058;46.344;17.786;2023-03-01T01:51:14;32.13;;;19.02;;
42414;SDS011;28058;46.344;17.786;2023-03-01T01:53:46;38.45;;;18.95;;
42414;SDS011;28058;46.344;17.786;2023-03-01T01:56:17;41.80;;;20.23;;
42414;SDS011;28058;46.344;17.786;2023-03-01T01:58:46;36.30;;;20.08;;
42414;SDS011;28058;46.344;17.786;2023-03-01T02:01:14;36.78;;;18.73;;
42414;SDS011;28058;46.344;17.786;2023-03-01T02:03:41;40.33;;;19.83;;
42414;SDS011;28058;46.344;17.786;2023-03-01T02:09:00;42.15;;;19.73;;
42414;SDS011;28058;46.344;17.786;2023-03-01T02:11:32;44.20;;;19.83;;
42414;SDS011;28058;46.344;17.786;2023-03-01T02:14:00;37.65;;;19.83;;
42414;SDS011;28058;46.344;17.786;2023-03-01T02:16:27;40.75;;;20.13;;
42414;SDS011;28058;46.344;17.786;2023-03-01T02:18:56;48.42;;;20.83;;
42414;SDS011;28058;46.344;17.786;2023-03-01T02:21:30;48.38;;;21.23;;
42414;SDS011;28058;46.344;17.786;2023-03-01T02:27:00;50.28;;;21.45;;
42414;SDS011;28058;46.344;17.786;2023-03-01T02:29:27;46.45;;;23.20;;
42414;SDS011;28058;46.344;17.786;2023-03-01T02:31:55;43.83;;;22.00;;
42414;SDS011;28058;46.344;17.786;2023-03-01T02:34:26;46.28;;;20.20;;
42414;SDS011;28058;46.344;17.786;2023-03-01T02:37:07;44.63;;;22.15;;
42414;SDS011;28058;46.344;17.786;2023-03-01T02:39:39;41.90;;;20.55;;
42414;SDS011;28058;46.344;17.786;2023-03-01T02:42:14;41.95;;;20.73;;
42414;SDS011;28058;46.344;17.786;2023-03-01T02:44:45;41.00;;;20.23;;
42414;SDS011;28058;46.344;17.786;2023-03-01T02:47:12;45.17;;;21.42;;
42414;SDS011;28058;46.344;17.786;2023-03-01T02:49:38;40.90;;;20.13;;
42414;SDS011;28058;46.344;17.786;2023-03-01T02:52:16;37.95;;;20.25;;
42414;SDS011;28058;46.344;17.786;2023-03-01T02:55:03;49.45;;;20.58;;
42414;SDS011;28058;46.344;17.786;2023-03-01T02:57:36;42.50;;;21.60;;
42414;SDS011;28058;46.344;17.786;2023-03-01T03:00:06;40.30;;;19.83;;
42414;SDS011;28058;46.344;17.786;2023-03-01T03:02:37;44.88;;;19.42;;
42414;SDS011;28058;46.344;17.786;2023-03-01T03:05:11;37.75;;;19.70;;
42414;SDS011;28058;46.344;17.786;2023-03-01T03:07:40;39.88;;;20.60;;
42414;SDS011;28058;46.344;17.786;2023-03-01T03:10:13;37.83;;;18.88;;
42414;SDS011;28058;46.344;17.786;2023-03-01T03:12:42;37.85;;;20.08;;
42414;SDS011;28058;46.344;17.786;2023-03-01T03:15:09;45.08;;;19.83;;
42414;SDS011;28058;46.344;17.786;2023-03-01T03:17:39;42.65;;;21.13;;
42414;SDS011;28058;46.344;17.786;2023-03-01T03:20:10;42.65;;;20.50;;
42414;SDS011;28058;46.344;17.786;2023-03-01T03:22:39;43.33;;;20.88;;
42414;SDS011;28058;46.344;17.786;2023-03-01T03:25:07;40.63;;;21.90;;
42414;SDS011;28058;46.344;17.786;2023-03-01T03:27:41;49.65;;;21.73;;
42414;SDS011;28058;46.344;17.786;2023-03-01T03:30:11;41.97;;;20.73;;
42414;SDS011;28058;46.344;17.786;2023-03-01T03:32:41;46.83;;;21.55;;
42414;SDS011;28058;46.344;17.786;2023-03-01T03:35:25;42.05;;;22.15;;
42414;SDS011;28058;46.344;17.786;2023-03-01T03:37:57;42.00;;;21.63;;
42414;SDS011;28058;46.344;17.786;2023-03-01T03:40:28;40.60;;;20.52;;
42414;SDS011;28058;46.344;17.786;2023-03-01T03:42:56;43.90;;;21.85;;
42414;SDS011;28058;46.344;17.786;2023-03-01T03:45:22;46.35;;;22.67;;
42414;SDS011;28058;46.344;17.786;2023-03-01T03:47:49;44.03;;;22.85;;
42414;SDS011;28058;46.344;17.786;2023-03-01T03:50:16;42.13;;;23.25;;
42414;SDS011;28058;46.344;17.786;2023-03-01T03:52:44;41.85;;;21.77;;
42414;SDS011;28058;46.344;17.786;2023-03-01T03:55:11;42.95;;;22.08;;
42414;SDS011;28058;46.344;17.786;2023-03-01T03:57:39;43.40;;;22.73;;
42414;SDS011;28058;46.344;17.786;2023-03-01T04:00:08;47.45;;;23.23;;
42414;SDS011;28058;46.344;17.786;2023-03-01T04:05:07;45.65;;;21.15;;
42414;SDS011;28058;46.344;17.786;2023-03-01T04:07:35;47.03;;;23.92;;
42414;SDS011;28058;46.344;17.786;2023-03-01T04:10:04;44.80;;;22.95;;
42414;SDS011;28058;46.344;17.786;2023-03-01T04:12:33;48.40;;;23.10;;
42414;SDS011;28058;46.344;17.786;2023-03-01T04:15:01;49.83;;;25.42;;
42414;SDS011;28058;46.344;17.786;2023-03-01T04:17:42;48.35;;;24.17;;
42414;SDS011;28058;46.344;17.786;2023-03-01T04:25:25;45.65;;;24.75;;
42414;SDS011;28058;46.344;17.786;2023-03-01T04:27:52;51.42;;;24.63;;
42414;SDS011;28058;46.344;17.786;2023-03-01T04:30:19;46.10;;;24.38;;
42414;SDS011;28058;46.344;17.786;2023-03-01T04:32:46;47.13;;;24.75;;
42414;SDS011;28058;46.344;17.786;2023-03-01T04:35:13;52.17;;;26.27;;
42414;SDS011;28058;46.344;17.786;2023-03-01T04:37:41;46.92;;;24.30;;
42414;SDS011;28058;46.344;17.786;2023-03-01T04:40:08;49.20;;;24.33;;
42414;SDS011;28058;46.344;17.786;2023-03-01T04:42:42;49.67;;;26.00;;
42414;SDS011;28058;46.344;17.786;2023-03-01T04:45:09;51.80;;;26.52;;
42414;SDS011;28058;46.344;17.786;2023-03-01T04:47:40;53.17;;;27.77;;
42414;SDS011;28058;46.344;17.786;2023-03-01T04:50:09;53.92;;;26.80;;
42414;SDS011;28058;46.344;17.786;2023-03-01T04:52:38;59.03;;;26.80;;
42414;SDS011;28058;46.344;17.786;2023-03-01T04:55:05;49.85;;;27.67;;
42414;SDS011;28058;46.344;17.786;2023-03-01T04:57:32;56.88;;;28.45;;
42414;SDS011;28058;46.344;17.786;2023-03-01T04:59:59;65.95;;;30.85;;
42414;SDS011;28058;46.344;17.786;2023-03-01T05:02:26;71.57;;;35.45;;
42414;SDS011;28058;46.344;17.786;2023-03-01T05:04:53;75.32;;;39.30;;
42414;SDS011;28058;46.344;17.786;2023-03-01T05:07:23;78.35;;;38.45;;
42414;SDS011;28058;46.344;17.786;2023-03-01T05:09:51;59.80;;;31.05;;
42414;SDS011;28058;46.344;17.786;2023-03-01T05:12:20;59.28;;;30.05;;
42414;SDS011;28058;46.344;17.786;2023-03-01T05:14:47;55.35;;;29.40;;
42414;SDS011;28058;46.344;17.786;2023-03-01T05:17:13;63.67;;;30.33;;
42414;SDS011;28058;46.344;17.786;2023-03-01T05:19:40;59.33;;;30.13;;
42414;SDS011;28058;46.344;17.786;2023-03-01T05:22:08;62.85;;;30.83;;
42414;SDS011;28058;46.344;17.786;2023-03-01T05:24:35;61.22;;;31.05;;
42414;SDS011;28058;46.344;17.786;2023-03-01T05:27:04;64.38;;;29.88;;
42414;SDS011;28058;46.344;17.786;2023-03-01T05:29:32;66.53;;;30.10;;
42414;SDS011;28058;46.344;17.786;2023-03-01T05:32:01;62.88;;;29.52;;
42414;SDS011;28058;46.344;17.786;2023-03-01T05:34:30;63.63;;;31.30;;
42414;SDS011;28058;46.344;17.786;2023-03-01T05:36:59;61.20;;;31.27;;
42414;SDS011;28058;46.344;17.786;2023-03-01T05:39:27;66.60;;;33.70;;
42414;SDS011;28058;46.344;17.786;2023-03-01T05:41:55;62.22;;;30.60;;
42414;SDS011;28058;46.344;17.786;2023-03-01T05:44:24;63.42;;;31.85;;
42414;SDS011;28058;46.344;17.786;2023-03-01T05:46:52;73.22;;;35.17;;
42414;SDS011;28058;46.344;17.786;2023-03-01T05:49:20;69.53;;;33.95;;
42414;SDS011;28058;46.344;17.786;2023-03-01T05:51:51;69.80;;;34.90;;
42414;SDS011;28058;46.344;17.786;2023-03-01T05:54:19;75.25;;;33.83;;
42414;SDS011;28058;46.344;17.786;2023-03-01T05:56:47;76.07;;;33.75;;
42414;SDS011;28058;46.344;17.786;2023-03-01T05:59:14;74.75;;;35.92;;
42414;SDS011;28058;46.344;17.786;2023-03-01T06:01:42;68.75;;;33.63;;
42414;SDS011;28058;46.344;17.786;2023-03-01T06:04:10;64.10;;;31.13;;
42414;SDS011;28058;46.344;17.786;2023-03-01T06:06:37;69.40;;;33.38;;
42414;SDS011;28058;46.344;17.786;2023-03-01T06:09:04;69.82;;;32.22;;
42414;SDS011;28058;46.344;17.786;2023-03-01T06:11:34;61.67;;;30.48;;
42414;SDS011;28058;46.344;17.786;2023-03-01T06:14:01;73.78;;;32.72;;
42414;SDS011;28058;46.344;17.786;2023-03-01T06:16:29;66.78;;;32.15;;
42414;SDS011;28058;46.344;17.786;2023-03-01T06:18:56;77.43;;;33.15;;
42414;SDS011;28058;46.344;17.786;2023-03-01T06:21:23;70.63;;;32.20;;
42414;SDS011;28058;46.344;17.786;2023-03-01T06:23:49;72.28;;;35.92;;
42414;SDS011;28058;46.344;17.786;2023-03-01T06:26:16;69.80;;;32.85;;
42414;SDS011;28058;46.344;17.786;2023-03-01T06:28:44;76.40;;;34.83;;
42414;SDS011;28058;46.344;17.786;2023-03-01T06:31:12;76.68;;;37.00;;
42414;SDS011;28058;46.344;17.786;2023-03-01T06:33:39;71.78;;;34.78;;
42414;SDS011;28058;46.344;17.786;2023-03-01T06:36:06;74.35;;;33.67;;
42414;SDS011;28058;46.344;17.786;2023-03-01T06:38:34;72.82;;;32.92;;
42414;SDS011;28058;46.344;17.786;2023-03-01T06:41:01;65.60;;;34.33;;
42414;SDS011;28058;46.344;17.786;2023-03-01T06:43:28;72.63;;;33.30;;
42414;SDS011;28058;46.344;17.786;2023-03-01T06:45:55;75.55;;;34.42;;
42414;SDS011;28058;46.344;17.786;2023-03-01T06:48:22;76.35;;;34.97;;
42414;SDS011;28058;46.344;17.786;2023-03-01T06:50:48;62.83;;;32.03;;
42414;SDS011;28058;46.344;17.786;2023-03-01T06:53:15;75.53;;;35.88;;
42414;SDS011;28058;46.344;17.786;2023-03-01T06:55:42;70.65;;;33.58;;
42414;SDS011;28058;46.344;17.786;2023-03-01T06:58:09;75.45;;;35.95;;
42414;SDS011;28058;46.344;17.786;2023-03-01T07:00:37;75.65;;;35.47;;
42414;SDS011;28058;46.344;17.786;2023-03-01T17:05:50;47.70;;;30.75;;
42414;SDS011;28058;46.344;17.786;2023-03-01T17:08:17;55.97;;;35.47;;
42414;SDS011;28058;46.344;17.786;2023-03-01T17:10:45;53.72;;;34.00;;
42414;SDS011;28058;46.344;17.786;2023-03-01T17:13:12;47.45;;;31.15;;
42414;SDS011;28058;46.344;17.786;2023-03-01T17:15:40;50.05;;;28.95;;
42414;SDS011;28058;46.344;17.786;2023-03-01T17:18:08;48.90;;;28.85;;
42414;SDS011;28058;46.344;17.786;2023-03-01T17:20:35;51.75;;;29.38;;
42414;SDS011;28058;46.344;17.786;2023-03-01T17:23:03;48.13;;;28.30;;
42414;SDS011;28058;46.344;17.786;2023-03-01T17:25:31;43.13;;;24.75;;
42414;SDS011;28058;46.344;17.786;2023-03-01T17:27:59;42.60;;;26.80;;
42414;SDS011;28058;46.344;17.786;2023-03-01T17:30:26;37.95;;;25.23;;
42414;SDS011;28058;46.344;17.786;2023-03-01T17:32:53;42.58;;;25.02;;
42414;SDS011;28058;46.344;17.786;2023-03-01T17:35:22;40.20;;;26.90;;
42414;SDS011;28058;46.344;17.786;2023-03-01T17:37:49;45.72;;;28.77;;
42414;SDS011;28058;46.344;17.786;2023-03-01T17:40:22;48.78;;;30.85;;
42414;SDS011;28058;46.344;17.786;2023-03-01T17:42:50;59.90;;;36.05;;
42414;SDS011;28058;46.344;17.786;2023-03-01T17:45:18;62.75;;;38.05;;
42414;SDS011;28058;46.344;17.786;2023-03-01T17:47:46;63.40;;;37.67;;
42414;SDS011;28058;46.344;17.786;2023-03-01T17:50:13;54.00;;;31.95;;
42414;SDS011;28058;46.344;17.786;2023-03-01T17:52:40;56.72;;;34.95;;
42414;SDS011;28058;46.344;17.786;2023-03-01T17:55:07;54.67;;;33.45;;
42414;SDS011;28058;46.344;17.786;2023-03-01T17:57:37;68.10;;;38.00;;
42414;SDS011;28058;46.344;17.786;2023-03-01T18:00:09;67.57;;;40.97;;
42414;SDS011;28058;46.344;17.786;2023-03-01T18:02:39;79.93;;;46.00;;
42414;SDS011;28058;46.344;17.786;2023-03-01T18:05:06;92.28;;;52.50;;
42414;SDS011;28058;46.344;17.786;2023-03-01T18:07:34;100.82;;;64.93;;
42414;SDS011;28058;46.344;17.786;2023-03-01T18:10:01;83.90;;;52.50;;
42414;SDS011;28058;46.344;17.786;2023-03-01T18:12:30;70.85;;;40.33;;
42414;SDS011;28058;46.344;17.786;2023-03-01T18:14:59;67.00;;;38.30;;
42414;SDS011;28058;46.344;17.786;2023-03-01T18:17:26;64.40;;;35.78;;
42414;SDS011;28058;46.344;17.786;2023-03-01T18:19:53;64.18;;;36.35;;
42414;SDS011;28058;46.344;17.786;2023-03-01T18:22:22;64.70;;;35.58;;
42414;SDS011;28058;46.344;17.786;2023-03-01T18:24:49;60.00;;;33.08;;
42414;SDS011;28058;46.344;17.786;2023-03-01T18:27:16;59.50;;;32.15;;
42414;SDS011;28058;46.344;17.786;2023-03-01T18:29:44;53.17;;;29.48;;
42414;SDS011;28058;46.344;17.786;2023-03-01T18:32:11;60.97;;;32.40;;
42414;SDS011;28058;46.344;17.786;2023-03-01T18:34:40;60.60;;;33.45;;
42414;SDS011;28058;46.344;17.786;2023-03-01T18:37:08;51.45;;;32.42;;
42414;SDS011;28058;46.344;17.786;2023-03-01T18:39:35;57.75;;;33.53;;
42414;SDS011;28058;46.344;17.786;2023-03-01T18:42:04;57.13;;;32.92;;
42414;SDS011;28058;46.344;17.786;2023-03-01T18:44:32;59.38;;;34.72;;
42414;SDS011;28058;46.344;17.786;2023-03-01T18:47:01;51.00;;;30.23;;
42414;SDS011;28058;46.344;17.786;2023-03-01T18:49:29;48.33;;;28.52;;
42414;SDS011;28058;46.344;17.786;2023-03-01T18:51:57;50.50;;;28.67;;
42414;SDS011;28058;46.344;17.786;2023-03-01T18:54:25;56.78;;;32.22;;
42414;SDS011;28058;46.344;17.786;2023-03-01T18:56:52;52.08;;;31.00;;
42414;SDS011;28058;46.344;17.786;2023-03-01T18:59:20;80.82;;;42.05;;
42414;SDS011;28058;46.344;17.786;2023-03-01T19:01:47;77.78;;;43.38;;
42414;SDS011;28058;46.344;17.786;2023-03-01T19:04:15;58.33;;;36.42;;
42414;SDS011;28058;46.344;17.786;2023-03-01T19:06:43;91.22;;;50.65;;
42414;SDS011;28058;46.344;17.786;2023-03-01T19:09:12;94.88;;;49.90;;
42414;SDS011;28058;46.344;17.786;2023-03-01T19:11:40;70.60;;;37.22;;
42414;SDS011;28058;46.344;17.786;2023-03-01T19:14:09;58.22;;;33.30;;
42414;SDS011;28058;46.344;17.786;2023-03-01T19:16:36;61.42;;;32.13;;
42414;SDS011;28058;46.344;17.786;2023-03-01T19:19:06;76.55;;;39.70;;
42414;SDS011;28058;46.344;17.786;2023-03-01T19:21:36;65.50;;;37.47;;
42414;SDS011;28058;46.344;17.786;2023-03-01T19:24:03;80.45;;;40.95;;
42414;SDS011;28058;46.344;17.786;2023-03-01T19:26:30;89.72;;;46.40;;
42414;SDS011;28058;46.344;17.786;2023-03-01T19:28:59;120.07;;;51.33;;
42414;SDS011;28058;46.344;17.786;2023-03-01T19:31:29;100.38;;;47.90;;
42414;SDS011;28058;46.344;17.786;2023-03-01T19:34:01;105.75;;;47.05;;
42414;SDS011;28058;46.344;17.786;2023-03-01T19:36:40;79.63;;;42.88;;
42414;SDS011;28058;46.344;17.786;2023-03-01T19:39:10;58.47;;;34.33;;
42414;SDS011;28058;46.344;17.786;2023-03-01T19:41:40;59.38;;;33.72;;
42414;SDS011;28058;46.344;17.786;2023-03-01T19:44:09;58.28;;;33.53;;
42414;SDS011;28058;46.344;17.786;2023-03-01T19:46:38;50.95;;;31.90;;
42414;SDS011;28058;46.344;17.786;2023-03-01T19:49:06;92.43;;;47.97;;
42414;SDS011;28058;46.344;17.786;2023-03-01T19:51:34;123.72;;;61.33;;
42414;SDS011;28058;46.344;17.786;2023-03-01T19:54:04;116.18;;;56.75;;
42414;SDS011;28058;46.344;17.786;2023-03-01T19:56:33;120.03;;;55.95;;
42414;SDS011;28058;46.344;17.786;2023-03-01T19:59:01;93.32;;;44.17;;
42414;SDS011;28058;46.344;17.786;2023-03-01T20:01:30;68.05;;;35.08;;
42414;SDS011;28058;46.344;17.786;2023-03-01T20:04:01;47.70;;;27.27;;
42414;SDS011;28058;46.344;17.786;2023-03-01T20:06:30;55.22;;;32.38;;
42414;SDS011;28058;46.344;17.786;2023-03-01T20:09:03;53.53;;;30.75;;
42414;SDS011;28058;46.344;17.786;2023-03-01T20:11:46;54.35;;;32.35;;
42414;SDS011;28058;46.344;17.786;2023-03-01T20:14:14;61.38;;;34.75;;
42414;SDS011;28058;46.344;17.786;2023-03-01T20:16:41;71.57;;;38.80;;
42414;SDS011;28058;46.344;17.786;2023-03-01T20:19:09;90.82;;;46.88;;
42414;SDS011;28058;46.344;17.786;2023-03-01T20:21:37;88.97;;;43.92;;
42414;SDS011;28058;46.344;17.786;2023-03-01T20:24:06;78.05;;;39.72;;
42414;SDS011;28058;46.344;17.786;2023-03-01T20:26:34;79.32;;;41.38;;
42414;SDS011;28058;46.344;17.786;2023-03-01T20:29:02;71.60;;;38.78;;
42414;SDS011;28058;46.344;17.786;2023-03-01T20:31:33;64.30;;;32.55;;
42414;SDS011;28058;46.344;17.786;2023-03-01T20:34:01;57.83;;;31.95;;
42414;SDS011;28058;46.344;17.786;2023-03-01T20:36:29;61.47;;;32.13;;
42414;SDS011;28058;46.344;17.786;2023-03-01T20:38:57;68.00;;;34.60;;
42414;SDS011;28058;46.344;17.786;2023-03-01T20:41:25;53.28;;;30.48;;
42414;SDS011;28058;46.344;17.786;2023-03-01T20:43:55;47.67;;;27.23;;
42414;SDS011;28058;46.344;17.786;2023-03-01T20:46:24;45.13;;;27.75;;
42414;SDS011;28058;46.344;17.786;2023-03-01T20:48:58;46.58;;;27.63;;
42414;SDS011;28058;46.344;17.786;2023-03-01T20:51:27;40.75;;;24.20;;
42414;SDS011;28058;46.344;17.786;2023-03-01T20:53:54;37.80;;;23.27;;
42414;SDS011;28058;46.344;17.786;2023-03-01T20:56:22;38.20;;;23.17;;
42414;SDS011;28058;46.344;17.786;2023-03-01T20:58:50;47.28;;;27.73;;
42414;SDS011;28058;46.344;17.786;2023-03-01T21:01:18;49.13;;;30.20;;
42414;SDS011;28058;46.344;17.786;2023-03-01T21:03:50;45.55;;;25.13;;
42414;SDS011;28058;46.344;17.786;2023-03-01T21:06:18;41.05;;;25.85;;
42414;SDS011;28058;46.344;17.786;2023-03-01T21:08:45;44.40;;;25.48;;
42414;SDS011;28058;46.344;17.786;2023-03-01T21:11:12;48.97;;;28.50;;
42414;SDS011;28058;46.344;17.786;2023-03-01T21:13:41;51.25;;;28.30;;
42414;SDS011;28058;46.344;17.786;2023-03-01T21:16:10;51.58;;;29.25;;
42414;SDS011;28058;46.344;17.786;2023-03-01T21:18:42;47.75;;;28.08;;
42414;SDS011;28058;46.344;17.786;2023-03-01T21:21:11;47.50;;;28.23;;
42414;SDS011;28058;46.344;17.786;2023-03-01T21:23:40;56.80;;;29.02;;
42414;SDS011;28058;46.344;17.786;2023-03-01T21:26:09;50.25;;;28.05;;
42414;SDS011;28058;46.344;17.786;2023-03-01T21:28:41;49.97;;;27.08;;
42414;SDS011;28058;46.344;17.786;2023-03-01T21:31:09;49.03;;;27.50;;
42414;SDS011;28058;46.344;17.786;2023-03-01T21:33:46;38.40;;;23.10;;
42414;SDS011;28058;46.344;17.786;2023-03-01T21:36:14;35.42;;;20.77;;
42414;SDS011;28058;46.344;17.786;2023-03-01T21:38:44;41.78;;;22.80;;
42414;SDS011;28058;46.344;17.786;2023-03-01T21:41:13;42.63;;;21.88;;
42414;SDS011;28058;46.344;17.786;2023-03-01T21:43:42;39.35;;;21.63;;
42414;SDS011;28058;46.344;17.786;2023-03-01T21:46:11;33.72;;;20.35;;
42414;SDS011;28058;46.344;17.786;2023-03-01T21:48:41;38.67;;;20.17;;
42414;SDS011;28058;46.344;17.786;2023-03-01T21:51:11;33.20;;;19.67;;
42414;SDS011;28058;46.344;17.786;2023-03-01T21:53:40;35.05;;;20.10;;
42414;SDS011;28058;46.344;17.786;2023-03-01T21:56:07;30.45;;;19.17;;
42414;SDS011;28058;46.344;17.786;2023-03-01T21:58:35;31.52;;;20.15;;
42414;SDS011;28058;46.344;17.786;2023-03-01T22:01:06;33.13;;;20.05;;
42414;SDS011;28058;46.344;17.786;2023-03-01T22:03:35;30.90;;;17.92;;
42414;SDS011;28058;46.344;17.786;2023-03-01T22:06:13;30.25;;;19.13;;
42414;SDS011;28058;46.344;17.786;2023-03-01T22:11:14;32.35;;;19.58;;
42414;SDS011;28058;46.344;17.786;2023-03-01T22:13:43;34.33;;;19.75;;
42414;SDS011;28058;46.344;17.786;2023-03-01T22:16:12;32.72;;;20.50;;
42414;SDS011;28058;46.344;17.786;2023-03-01T22:18:39;33.58;;;20.27;;
42414;SDS011;28058;46.344;17.786;2023-03-01T22:21:06;29.92;;;18.40;;
42414;SDS011;28058;46.344;17.786;2023-03-01T22:23:34;29.27;;;17.15;;
42414;SDS011;28058;46.344;17.786;2023-03-01T22:26:02;29.48;;;16.55;;
42414;SDS011;28058;46.344;17.786;2023-03-01T22:28:29;28.98;;;17.08;;
42414;SDS011;28058;46.344;17.786;2023-03-01T22:30:56;27.95;;;17.65;;
42414;SDS011;28058;46.344;17.786;2023-03-01T22:33:23;28.55;;;16.58;;
42414;SDS011;28058;46.344;17.786;2023-03-01T22:35:53;28.65;;;17.35;;
42414;SDS011;28058;46.344;17.786;2023-03-01T22:38:21;28.60;;;15.37;;
42414;SDS011;28058;46.344;17.786;2023-03-01T22:40:58;28.33;;;16.17;;
42414;SDS011;28058;46.344;17.786;2023-03-01T22:43:27;27.98;;;16.40;;
42414;SDS011;28058;46.344;17.786;2023-03-01T22:45:55;25.33;;;15.80;;
42414;SDS011;28058;46.344;17.786;2023-03-01T22:48:23;27.48;;;16.98;;
42414;SDS011;28058;46.344;17.786;2023-03-01T22:50:50;27.35;;;16.45;;
42414;SDS011;28058;46.344;17.786;2023-03-01T22:53:17;25.60;;;15.30;;
42414;SDS011;28058;46.344;17.786;2023-03-01T22:55:44;28.60;;;15.75;;
42414;SDS011;28058;46.344;17.786;2023-03-01T22:58:11;26.42;;;15.75;;
42414;SDS011;28058;46.344;17.786;2023-03-01T23:00:38;27.35;;;16.77;;
42414;SDS011;28058;46.344;17.786;2023-03-01T23:03:04;28.05;;;16.45;;
42414;SDS011;28058;46.344;17.786;2023-03-01T23:05:31;27.67;;;15.90;;
42414;SDS011;28058;46.344;17.786;2023-03-01T23:07:58;26.08;;;15.95;;
42414;SDS011;28058;46.344;17.786;2023-03-01T23:10:25;30.98;;;16.80;;
42414;SDS011;28058;46.344;17.786;2023-03-01T23:12:55;31.63;;;17.55;;
42414;SDS011;28058;46.344;17.786;2023-03-01T23:15:22;26.33;;;17.27;;
42414;SDS011;28058;46.344;17.786;2023-03-01T23:17:49;23.08;;;15.02;;
42414;SDS011;28058;46.344;17.786;2023-03-01T23:20:16;32.85;;;17.17;;
42414;SDS011;28058;46.344;17.786;2023-03-01T23:22:43;28.35;;;16.83;;
42414;SDS011;28058;46.344;17.786;2023-03-01T23:25:10;24.77;;;15.45;;
42414;SDS011;28058;46.344;17.786;2023-03-01T23:27:40;29.52;;;16.63;;
42414;SDS011;28058;46.344;17.786;2023-03-01T23:30:07;27.75;;;16.85;;
42414;SDS011;28058;46.344;17.786;2023-03-01T23:32:34;30.52;;;16.00;;
42414;SDS011;28058;46.344;17.786;2023-03-01T23:35:09;28.55;;;16.35;;
42414;SDS011;28058;46.344;17.786;2023-03-01T23:37:36;28.50;;;16.65;;
42414;SDS011;28058;46.344;17.786;2023-03-01T23:40:04;27.38;;;15.40;;
42414;SDS011;28058;46.344;17.786;2023-03-01T23:42:32;26.27;;;16.00;;
42414;SDS011;28058;46.344;17.786;2023-03-01T23:44:59;28.30;;;16.67;;
42414;SDS011;28058;46.344;17.786;2023-03-01T23:47:26;29.30;;;15.77;;
42414;SDS011;28058;46.344;17.786;2023-03-01T23:49:53;24.00;;;15.40;;
42414;SDS011;28058;46.344;17.786;2023-03-01T23:52:22;26.35;;;16.00;;
42414;SDS011;28058;46.344;17.786;2023-03-01T23:54:49;28.90;;;15.98;;
42414;SDS011;28058;46.344;17.786;2023-03-01T23:57:17;26.13;;;15.45;;
42414;SDS011;28058;46.344;17.786;2023-03-01T23:59:45;26.08;;;14.98;;
